Time;durP1;ratioP1;P1;durP2;ratioP2;P2;SDS_P1;SDS_P2;PMS_P1;PMS_P2;Temp;Humidity;BMP_temperature;BMP_pressure;BME280_temperature;BME280_humidity;BME280_pressure;Samples;Min_cycle;Max_cycle;Signal;HPM_P1;HPM_P2
2023/05/26 00:00:23;;;;;;;3.20;1.45;;;;;;;;;;5020346;28;20038;-57
2023/05/26 00:02:50;;;;;;;4.20;1.38;;;;;;;;;;5023095;28;20061;-57
2023/05/26 00:05:16;;;;;;;4.00;1.83;;;;;;;;;;5023437;28;20054;-54
2023/05/26 00:07:43;;;;;;;7.43;1.13;;;;;;;;;;5023778;28;20489;-57
2023/05/26 00:10:10;;;;;;;3.10;1.20;;;;;;;;;;5021878;28;20382;-57
2023/05/26 00:12:36;;;;;;;2.03;1.30;;;;;;;;;;5023717;28;20479;-58
2023/05/26 00:15:03;;;;;;;3.30;1.30;;;;;;;;;;5018060;28;20057;-57
2023/05/26 00:17:29;;;;;;;3.20;1.45;;;;;;;;;;5023803;28;20071;-57
2023/05/26 00:19:59;;;;;;;2.63;1.30;;;;;;;;;;5022833;28;20095;-57
2023/05/26 00:22:26;;;;;;;3.17;1.00;;;;;;;;;;5021272;28;20045;-57
2023/05/26 00:24:52;;;;;;;2.83;1.30;;;;;;;;;;5021992;28;20072;-57
2023/05/26 00:27:18;;;;;;;2.75;1.30;;;;;;;;;;5003390;28;20556;-57
2023/05/26 00:29:44;;;;;;;2.63;1.50;;;;;;;;;;5022676;28;20049;-57
2023/05/26 00:32:11;;;;;;;3.05;1.13;;;;;;;;;;5021486;28;20134;-56
2023/05/26 00:34:37;;;;;;;2.97;1.13;;;;;;;;;;5016852;28;20038;-57
2023/05/26 00:37:03;;;;;;;2.33;0.95;;;;;;;;;;5019120;28;20125;-56
2023/05/26 00:39:32;;;;;;;3.42;1.40;;;;;;;;;;5021987;28;20033;-57
2023/05/26 00:41:59;;;;;;;3.80;1.67;;;;;;;;;;5021811;28;20564;-57
2023/05/26 00:44:25;;;;;;;2.63;1.38;;;;;;;;;;5020481;28;20048;-57
2023/05/26 00:46:51;;;;;;;2.72;1.38;;;;;;;;;;5020645;28;20049;-57
2023/05/26 00:49:17;;;;;;;2.67;1.45;;;;;;;;;;5020138;28;20077;-55
2023/05/26 00:51:44;;;;;;;1.95;0.80;;;;;;;;;;5025925;28;20108;-57
2023/05/26 00:54:10;;;;;;;2.03;1.30;;;;;;;;;;5024787;28;20041;-56
2023/05/26 00:56:36;;;;;;;3.45;1.48;;;;;;;;;;5025431;28;20123;-57
2023/05/26 00:59:03;;;;;;;2.75;1.33;;;;;;;;;;5025494;28;20080;-57
2023/05/26 01:01:30;;;;;;;2.40;1.08;;;;;;;;;;5026004;28;20054;-56
2023/05/26 01:03:56;;;;;;;2.38;1.02;;;;;;;;;;5025236;28;20057;-57
2023/05/26 01:06:22;;;;;;;1.85;0.93;;;;;;;;;;5025809;28;20620;-57
2023/05/26 01:08:48;;;;;;;2.35;1.35;;;;;;;;;;5022816;28;20048;-57
2023/05/26 01:11:20;;;;;;;2.70;0.90;;;;;;;;;;5020883;28;20490;-56
2023/05/26 01:13:53;;;;;;;1.55;0.82;;;;;;;;;;5025275;28;20065;-56
2023/05/26 01:16:22;;;;;;;1.38;0.88;;;;;;;;;;5024479;28;20041;-57
2023/05/26 01:19:02;;;;;;;1.63;0.80;;;;;;;;;;5023761;28;20064;-57
2023/05/26 01:21:31;;;;;;;2.13;0.88;;;;;;;;;;5021519;28;20125;-57
2023/05/26 01:24:07;;;;;;;3.60;1.38;;;;;;;;;;5024629;28;20038;-57
2023/05/26 01:26:52;;;;;;;2.35;0.88;;;;;;;;;;5023285;28;20677;-56
2023/05/26 01:29:22;;;;;;;1.50;1.15;;;;;;;;;;5023755;28;20914;-56
2023/05/26 01:31:48;;;;;;;1.73;0.82;;;;;;;;;;5024554;28;20053;-57
2023/05/26 01:34:14;;;;;;;3.95;1.00;;;;;;;;;;5025172;28;20049;-57
2023/05/26 01:36:40;;;;;;;3.47;1.13;;;;;;;;;;5025575;28;20029;-57
2023/05/26 01:39:07;;;;;;;7.07;1.70;;;;;;;;;;5023521;28;20041;-57
2023/05/26 01:41:34;;;;;;;2.22;0.88;;;;;;;;;;5024054;28;20090;-57
2023/05/26 01:44:10;;;;;;;4.10;1.15;;;;;;;;;;5023399;28;20125;-57
2023/05/26 01:46:44;;;;;;;2.97;1.00;;;;;;;;;;5021200;28;20049;-57
2023/05/26 01:49:11;;;;;;;4.43;1.23;;;;;;;;;;5020549;28;20510;-57
2023/05/26 01:51:39;;;;;;;3.00;1.23;;;;;;;;;;5024045;28;20068;-56
2023/05/26 01:54:08;;;;;;;5.03;1.13;;;;;;;;;;5021966;28;20534;-56
2023/05/26 01:56:35;;;;;;;2.45;0.90;;;;;;;;;;5021139;28;20528;-57
2023/05/26 01:59:02;;;;;;;1.77;0.90;;;;;;;;;;5025295;28;20053;-58
2023/05/26 02:01:29;;;;;;;3.95;1.38;;;;;;;;;;5023449;28;20145;-57
2023/05/26 02:03:56;;;;;;;3.33;1.00;;;;;;;;;;5025266;28;20567;-57
2023/05/26 02:06:22;;;;;;;3.33;1.88;;;;;;;;;;5024975;28;20045;-56
2023/05/26 02:08:50;;;;;;;1.20;0.77;;;;;;;;;;5020013;28;20045;-57
2023/05/26 02:11:16;;;;;;;3.70;1.33;;;;;;;;;;5022007;28;20082;-57
2023/05/26 02:13:43;;;;;;;3.95;1.05;;;;;;;;;;5024514;28;20037;-57
2023/05/26 02:16:11;;;;;;;2.97;1.25;;;;;;;;;;5023507;28;20079;-58
2023/05/26 02:18:37;;;;;;;4.18;1.83;;;;;;;;;;5024162;28;20064;-57
2023/05/26 02:21:03;;;;;;;3.25;1.10;;;;;;;;;;5022976;28;20037;-57
2023/05/26 02:23:29;;;;;;;3.85;1.45;;;;;;;;;;5021433;28;20125;-57
2023/05/26 02:25:55;;;;;;;3.88;1.33;;;;;;;;;;5024892;28;20034;-56
2023/05/26 02:28:21;;;;;;;1.88;1.10;;;;;;;;;;5023009;28;20099;-56
2023/05/26 02:30:47;;;;;;;4.07;1.70;;;;;;;;;;5024356;28;20041;-57
2023/05/26 02:33:13;;;;;;;3.38;1.25;;;;;;;;;;5023565;28;20053;-56
2023/05/26 02:35:39;;;;;;;3.00;1.38;;;;;;;;;;5023593;28;20107;-56
2023/05/26 02:38:05;;;;;;;3.05;1.13;;;;;;;;;;5023029;28;20657;-56
2023/05/26 02:40:31;;;;;;;1.55;0.75;;;;;;;;;;5023611;28;20048;-56
2023/05/26 02:42:57;;;;;;;4.65;1.10;;;;;;;;;;5024070;28;20042;-56
2023/05/26 02:45:23;;;;;;;2.05;1.02;;;;;;;;;;5023580;28;20044;-56
2023/05/26 02:47:49;;;;;;;1.80;0.80;;;;;;;;;;5024409;28;20037;-56
2023/05/26 02:50:17;;;;;;;3.17;1.10;;;;;;;;;;5024149;28;20048;-56
2023/05/26 02:52:43;;;;;;;2.47;1.15;;;;;;;;;;5024850;28;20509;-57
2023/05/26 02:55:11;;;;;;;4.57;1.27;;;;;;;;;;5023398;28;20079;-56
2023/05/26 02:57:37;;;;;;;2.38;1.15;;;;;;;;;;5022075;28;20050;-56
2023/05/26 03:00:07;;;;;;;2.45;0.98;;;;;;;;;;5020298;28;20386;-57
2023/05/26 03:02:33;;;;;;;3.20;1.17;;;;;;;;;;5023029;28;20508;-56
2023/05/26 03:04:59;;;;;;;2.33;1.05;;;;;;;;;;5023141;28;20088;-56
2023/05/26 03:07:25;;;;;;;2.90;1.08;;;;;;;;;;5023790;28;20077;-56
2023/05/26 03:09:51;;;;;;;2.30;0.80;;;;;;;;;;5024226;28;20102;-56
2023/05/26 03:12:17;;;;;;;2.95;1.10;;;;;;;;;;5022544;28;20095;-57
2023/05/26 03:14:43;;;;;;;1.67;0.80;;;;;;;;;;5024609;28;20041;-56
2023/05/26 03:17:09;;;;;;;2.53;1.15;;;;;;;;;;5021797;28;20482;-56
2023/05/26 03:19:35;;;;;;;2.08;0.90;;;;;;;;;;5013947;28;20034;-56
2023/05/26 03:22:01;;;;;;;2.63;1.00;;;;;;;;;;5023418;28;20041;-56
2023/05/26 03:24:27;;;;;;;1.85;0.90;;;;;;;;;;5023095;28;20045;-57
2023/05/26 03:26:53;;;;;;;1.77;1.10;;;;;;;;;;5018483;28;20041;-56
2023/05/26 03:29:19;;;;;;;2.08;1.30;;;;;;;;;;5023637;28;20072;-56
2023/05/26 03:31:46;;;;;;;5.20;1.58;;;;;;;;;;5023936;28;20123;-56
2023/05/26 03:34:12;;;;;;;3.75;1.10;;;;;;;;;;5016416;28;20048;-55
2023/05/26 03:36:39;;;;;;;2.65;1.08;;;;;;;;;;5022672;28;20037;-56
2023/05/26 03:39:06;;;;;;;1.80;0.85;;;;;;;;;;5022798;28;20064;-56
2023/05/26 03:41:33;;;;;;;2.03;0.80;;;;;;;;;;5024068;28;20053;-56
2023/05/26 03:44:00;;;;;;;2.67;0.63;;;;;;;;;;5018313;28;20047;-55
2023/05/26 03:46:26;;;;;;;4.25;1.10;;;;;;;;;;5022746;28;20041;-56
2023/05/26 03:48:52;;;;;;;0.88;0.50;;;;;;;;;;5023877;28;20037;-57
2023/05/26 03:51:18;;;;;;;2.30;0.95;;;;;;;;;;5023184;28;20486;-56
2023/05/26 03:53:44;;;;;;;0.90;0.52;;;;;;;;;;5023034;28;20037;-57
2023/05/26 03:56:10;;;;;;;1.02;0.70;;;;;;;;;;5023128;28;20053;-57
2023/05/26 03:58:36;;;;;;;1.73;0.90;;;;;;;;;;5024269;28;21158;-57
2023/05/26 04:01:03;;;;;;;1.55;0.80;;;;;;;;;;5019587;28;20045;-56
2023/05/26 04:03:30;;;;;;;1.90;0.63;;;;;;;;;;5016835;28;20065;-56
2023/05/26 04:05:59;;;;;;;2.45;1.00;;;;;;;;;;5023428;28;20041;-57
2023/05/26 04:08:25;;;;;;;2.95;0.82;;;;;;;;;;5023006;28;20041;-56
2023/05/26 04:10:52;;;;;;;2.55;1.10;;;;;;;;;;5017739;28;20076;-56
2023/05/26 04:13:17;;;;;;;1.52;0.80;;;;;;;;;;5022017;28;20048;-55
2023/05/26 04:15:44;;;;;;;1.60;1.25;;;;;;;;;;5024410;28;20056;-55
2023/05/26 04:18:10;;;;;;;2.28;0.80;;;;;;;;;;5019823;28;20144;-56
2023/05/26 04:20:37;;;;;;;3.95;1.42;;;;;;;;;;5023047;28;20045;-56
2023/05/26 04:23:03;;;;;;;2.90;0.98;;;;;;;;;;5017486;28;20104;-56
2023/05/26 04:25:30;;;;;;;3.65;1.33;;;;;;;;;;5024775;28;20482;-56
2023/05/26 04:27:58;;;;;;;1.48;0.88;;;;;;;;;;5026779;28;20545;-56
2023/05/26 04:30:24;;;;;;;1.80;0.82;;;;;;;;;;5027061;28;20076;-57
2023/05/26 04:32:50;;;;;;;1.38;0.90;;;;;;;;;;5025582;28;20082;-56
2023/05/26 04:35:19;;;;;;;5.57;1.80;;;;;;;;;;5025747;28;20050;-56
2023/05/26 04:37:45;;;;;;;2.13;1.35;;;;;;;;;;5027818;28;20041;-56
2023/05/26 04:40:11;;;;;;;1.35;0.60;;;;;;;;;;5026671;28;20048;-56
2023/05/26 04:42:37;;;;;;;1.70;0.80;;;;;;;;;;5025683;28;20065;-57
2023/05/26 04:45:04;;;;;;;1.20;0.52;;;;;;;;;;5026647;28;20037;-56
2023/05/26 04:47:32;;;;;;;2.25;0.90;;;;;;;;;;5020216;28;20045;-56
2023/05/26 04:49:59;;;;;;;1.90;0.80;;;;;;;;;;5026372;28;20117;-57
2023/05/26 04:52:25;;;;;;;1.65;0.63;;;;;;;;;;5026229;28;20041;-57
2023/05/26 04:54:51;;;;;;;1.75;0.70;;;;;;;;;;5026848;28;20100;-57
2023/05/26 04:57:18;;;;;;;2.22;1.13;;;;;;;;;;5025529;28;20045;-56
2023/05/26 04:59:44;;;;;;;1.92;0.98;;;;;;;;;;5027661;28;20048;-57
2023/05/26 05:02:10;;;;;;;4.78;1.58;;;;;;;;;;5025771;28;20061;-56
2023/05/26 05:04:36;;;;;;;4.63;1.60;;;;;;;;;;5026409;28;20116;-56
2023/05/26 05:07:03;;;;;;;2.00;1.13;;;;;;;;;;5026187;28;20597;-56
2023/05/26 05:09:29;;;;;;;4.20;1.25;;;;;;;;;;5014944;28;20057;-57
2023/05/26 05:11:55;;;;;;;3.03;1.13;;;;;;;;;;5026644;28;20037;-56
2023/05/26 05:14:21;;;;;;;1.35;0.85;;;;;;;;;;5025877;28;20534;-56
2023/05/26 05:16:47;;;;;;;1.88;0.98;;;;;;;;;;5016695;28;20038;-57
2023/05/26 05:19:13;;;;;;;1.40;0.70;;;;;;;;;;5025942;28;20041;-56
2023/05/26 05:21:39;;;;;;;2.38;1.08;;;;;;;;;;5019281;28;20069;-56
2023/05/26 05:24:05;;;;;;;2.28;1.00;;;;;;;;;;5017311;28;20048;-56
2023/05/26 05:26:31;;;;;;;3.92;1.15;;;;;;;;;;5019848;28;20041;-56
2023/05/26 05:28:57;;;;;;;3.10;1.17;;;;;;;;;;5026232;28;20037;-55
2023/05/26 05:31:23;;;;;;;2.67;1.38;;;;;;;;;;5025058;28;20041;-56
2023/05/26 05:33:49;;;;;;;5.88;1.90;;;;;;;;;;5025071;28;20129;-56
2023/05/26 05:36:16;;;;;;;4.22;1.60;;;;;;;;;;5025915;28;20068;-56
2023/05/26 05:38:42;;;;;;;3.80;1.95;;;;;;;;;;5026166;28;20128;-55
2023/05/26 05:41:09;;;;;;;7.18;1.88;;;;;;;;;;5025460;28;20200;-56
2023/05/26 05:43:35;;;;;;;3.20;1.48;;;;;;;;;;5025921;28;20038;-56
2023/05/26 05:46:01;;;;;;;4.95;1.80;;;;;;;;;;5024672;28;20488;-56
2023/05/26 05:48:27;;;;;;;4.22;1.70;;;;;;;;;;5015195;28;20117;-56
2023/05/26 05:50:53;;;;;;;2.88;1.40;;;;;;;;;;5025719;28;20148;-56
2023/05/26 05:53:19;;;;;;;4.82;2.20;;;;;;;;;;5024441;28;20046;-56
2023/05/26 05:55:46;;;;;;;10.60;3.08;;;;;;;;;;5026289;28;20037;-56
2023/05/26 05:58:12;;;;;;;4.57;2.20;;;;;;;;;;5020538;28;20051;-56
2023/05/26 06:00:38;;;;;;;8.70;2.15;;;;;;;;;;5025461;28;20045;-57
2023/05/26 06:03:04;;;;;;;5.18;2.38;;;;;;;;;;5023752;28;20879;-56
2023/05/26 06:05:30;;;;;;;12.35;2.80;;;;;;;;;;5024774;28;20043;-56
2023/05/26 06:07:56;;;;;;;9.30;3.00;;;;;;;;;;5024682;28;20063;-56
2023/05/26 06:10:22;;;;;;;8.02;2.72;;;;;;;;;;5023217;28;20050;-56
2023/05/26 06:12:48;;;;;;;7.35;2.55;;;;;;;;;;5024734;28;20674;-56
2023/05/26 06:15:14;;;;;;;9.68;2.45;;;;;;;;;;5025010;28;20634;-56
2023/05/26 06:17:41;;;;;;;7.28;2.00;;;;;;;;;;5023295;28;20048;-56
2023/05/26 06:20:07;;;;;;;3.88;1.65;;;;;;;;;;5014214;28;20057;-56
2023/05/26 06:22:36;;;;;;;2.67;1.40;;;;;;;;;;5025403;28;20088;-56
2023/05/26 06:25:02;;;;;;;6.07;2.92;;;;;;;;;;5018102;28;20049;-57
2023/05/26 06:27:28;;;;;;;4.45;2.22;;;;;;;;;;5020913;28;20041;-56
2023/05/26 06:29:54;;;;;;;4.38;1.80;;;;;;;;;;5024406;28;20049;-56
2023/05/26 06:32:20;;;;;;;10.45;3.03;;;;;;;;;;4998376;28;20037;-56
2023/05/26 06:34:47;;;;;;;5.30;1.98;;;;;;;;;;5005654;28;20064;-56
2023/05/26 06:37:13;;;;;;;3.55;1.85;;;;;;;;;;5022424;28;20069;-56
2023/05/26 06:39:39;;;;;;;6.07;2.25;;;;;;;;;;5024881;28;20076;-56
2023/05/26 06:42:05;;;;;;;5.15;2.10;;;;;;;;;;5004329;28;20053;-56
2023/05/26 06:44:32;;;;;;;8.70;2.28;;;;;;;;;;5020618;28;20076;-56
2023/05/26 06:46:58;;;;;;;7.70;2.58;;;;;;;;;;5025813;28;20041;-56
2023/05/26 06:49:24;;;;;;;8.23;2.30;;;;;;;;;;5022560;28;20048;-56
2023/05/26 06:51:50;;;;;;;7.13;2.28;;;;;;;;;;5019965;28;20573;-56
2023/05/26 06:54:16;;;;;;;7.35;2.42;;;;;;;;;;5025548;28;20128;-57
2023/05/26 06:56:42;;;;;;;7.85;2.58;;;;;;;;;;5025991;28;20052;-59
2023/05/26 06:59:08;;;;;;;7.60;2.70;;;;;;;;;;5025847;28;20041;-60
2023/05/26 07:01:34;;;;;;;4.72;1.95;;;;;;;;;;5018892;28;20049;-61
2023/05/26 07:04:00;;;;;;;5.10;2.20;;;;;;;;;;5024671;28;20123;-62
2023/05/26 07:06:26;;;;;;;6.28;1.80;;;;;;;;;;5025799;28;20043;-55
2023/05/26 07:08:52;;;;;;;3.20;1.48;;;;;;;;;;5025568;28;20038;-55
2023/05/26 07:11:18;;;;;;;6.03;1.65;;;;;;;;;;5009630;28;20053;-56
2023/05/26 07:13:46;;;;;;;6.00;1.90;;;;;;;;;;5012904;28;20049;-55
2023/05/26 07:16:12;;;;;;;8.95;2.78;;;;;;;;;;5016122;28;20736;-55
2023/05/26 07:18:38;;;;;;;4.65;1.83;;;;;;;;;;5011239;28;20041;-55
2023/05/26 07:21:04;;;;;;;4.25;2.33;;;;;;;;;;5002445;28;20045;-55
2023/05/26 07:23:30;;;;;;;3.95;1.70;;;;;;;;;;5023339;28;20076;-62
2023/05/26 07:25:56;;;;;;;7.78;3.08;;;;;;;;;;5021822;28;20095;-54
2023/05/26 07:28:22;;;;;;;5.65;2.45;;;;;;;;;;5011179;28;20045;-54
2023/05/26 07:30:48;;;;;;;4.45;2.25;;;;;;;;;;5023798;28;20397;-54
2023/05/26 07:33:14;;;;;;;4.15;2.17;;;;;;;;;;5024671;28;20073;-54
2023/05/26 07:35:40;;;;;;;5.70;2.25;;;;;;;;;;5024667;28;20120;-55
2023/05/26 07:38:07;;;;;;;5.63;2.00;;;;;;;;;;5023407;28;20544;-55
2023/05/26 07:40:35;;;;;;;4.13;1.70;;;;;;;;;;5005626;28;20070;-54
2023/05/26 07:43:02;;;;;;;5.07;1.85;;;;;;;;;;4985991;28;20096;-53
2023/05/26 07:45:28;;;;;;;8.60;2.63;;;;;;;;;;4967702;28;20100;-55
2023/05/26 07:47:54;;;;;;;7.68;2.40;;;;;;;;;;4986308;28;20049;-56
2023/05/26 07:50:20;;;;;;;8.20;2.33;;;;;;;;;;4986387;28;20046;-55
2023/05/26 07:52:46;;;;;;;4.25;1.85;;;;;;;;;;4984342;28;20495;-52
2023/05/26 07:55:12;;;;;;;4.22;1.70;;;;;;;;;;4985284;28;20054;-55
2023/05/26 07:57:38;;;;;;;2.92;1.85;;;;;;;;;;4985358;28;20038;-55
2023/05/26 08:00:05;;;;;;;4.43;2.08;;;;;;;;;;4984313;28;20053;-55
2023/05/26 08:02:31;;;;;;;6.28;2.20;;;;;;;;;;4984928;28;20062;-55
2023/05/26 08:04:57;;;;;;;5.05;2.30;;;;;;;;;;5018394;28;20053;-55
2023/05/26 08:07:23;;;;;;;4.70;1.90;;;;;;;;;;5024460;28;20045;-55
2023/05/26 08:09:49;;;;;;;7.80;1.88;;;;;;;;;;5025297;28;20406;-55
2023/05/26 08:12:15;;;;;;;3.63;1.55;;;;;;;;;;5026194;28;20041;-54
2023/05/26 08:14:41;;;;;;;4.97;1.65;;;;;;;;;;5007629;28;20045;-55
2023/05/26 08:17:07;;;;;;;5.97;2.28;;;;;;;;;;5025108;28;20053;-55
2023/05/26 08:19:33;;;;;;;5.43;1.88;;;;;;;;;;5024656;28;20497;-55
2023/05/26 08:21:59;;;;;;;3.83;1.92;;;;;;;;;;5025184;28;20095;-55
2023/05/26 08:24:25;;;;;;;3.47;1.60;;;;;;;;;;5025151;28;20069;-55
2023/05/26 08:26:52;;;;;;;4.35;1.95;;;;;;;;;;5024498;28;20056;-55
2023/05/26 08:29:18;;;;;;;8.02;2.00;;;;;;;;;;5025548;28;20044;-54
2023/05/26 08:31:44;;;;;;;3.17;1.52;;;;;;;;;;5026029;28;20041;-55
2023/05/26 08:34:10;;;;;;;5.28;2.33;;;;;;;;;;5024410;28;20730;-55
2023/05/26 08:36:36;;;;;;;4.82;2.03;;;;;;;;;;5025536;28;20608;-55
2023/05/26 08:39:02;;;;;;;3.45;1.67;;;;;;;;;;5025441;28;20395;-55
2023/05/26 08:41:33;;;;;;;3.90;1.77;;;;;;;;;;5024744;28;20042;-55
2023/05/26 08:44:00;;;;;;;8.23;2.65;;;;;;;;;;5025151;28;20045;-55
2023/05/26 08:46:27;;;;;;;6.95;2.17;;;;;;;;;;5025288;28;20049;-54
2023/05/26 08:48:53;;;;;;;6.13;1.65;;;;;;;;;;5024119;28;20671;-55
2023/05/26 08:51:19;;;;;;;6.95;2.17;;;;;;;;;;5024855;28;20049;-55
2023/05/26 08:53:48;;;;;;;4.82;1.80;;;;;;;;;;5025208;28;20046;-54
2023/05/26 08:56:14;;;;;;;7.70;2.80;;;;;;;;;;5025144;28;20125;-54
2023/05/26 08:58:40;;;;;;;6.95;2.53;;;;;;;;;;5003595;28;20042;-54
2023/05/26 09:01:06;;;;;;;6.22;2.35;;;;;;;;;;4999550;28;20046;-55
2023/05/26 09:03:32;;;;;;;4.15;1.95;;;;;;;;;;5004107;28;20057;-54
2023/05/26 09:05:58;;;;;;;5.75;2.42;;;;;;;;;;5003419;28;20042;-55
2023/05/26 09:08:24;;;;;;;6.38;2.20;;;;;;;;;;5000486;28;20042;-55
2023/05/26 09:10:50;;;;;;;3.83;1.63;;;;;;;;;;4999180;28;20041;-55
2023/05/26 09:13:21;;;;;;;4.53;1.80;;;;;;;;;;5000528;28;20041;-55
2023/05/26 09:15:51;;;;;;;5.40;1.75;;;;;;;;;;5010250;28;20069;-55
2023/05/26 09:18:18;;;;;;;6.25;2.20;;;;;;;;;;5021767;28;20046;-55
2023/05/26 09:20:45;;;;;;;4.88;2.08;;;;;;;;;;5027155;28;20040;-55
2023/05/26 09:23:11;;;;;;;4.55;1.80;;;;;;;;;;5026407;28;20049;-55
2023/05/26 09:25:38;;;;;;;8.13;2.72;;;;;;;;;;5026307;28;20042;-55
2023/05/26 09:28:08;;;;;;;8.18;2.25;;;;;;;;;;5026380;28;20037;-55
2023/05/26 09:30:40;;;;;;;6.60;2.38;;;;;;;;;;5021840;28;20076;-54
2023/05/26 09:33:07;;;;;;;6.90;2.53;;;;;;;;;;5026370;28;20413;-55
2023/05/26 09:35:35;;;;;;;7.43;2.20;;;;;;;;;;5026124;28;20054;-55
2023/05/26 09:38:03;;;;;;;7.85;2.50;;;;;;;;;;5025464;28;20120;-55
2023/05/26 09:40:29;;;;;;;6.75;2.40;;;;;;;;;;5025890;28;20045;-55
2023/05/26 09:42:55;;;;;;;6.88;2.33;;;;;;;;;;5016663;28;20042;-55
2023/05/26 09:45:21;;;;;;;4.05;1.65;;;;;;;;;;5023822;28;20056;-54
2023/05/26 09:47:51;;;;;;;5.88;2.08;;;;;;;;;;5010455;28;20194;-54
2023/05/26 09:50:17;;;;;;;7.35;2.40;;;;;;;;;;5016578;28;20038;-55
2023/05/26 09:52:44;;;;;;;8.10;2.90;;;;;;;;;;5024916;28;20446;-54
2023/05/26 09:55:10;;;;;;;6.75;2.20;;;;;;;;;;5025438;28;20116;-55
2023/05/26 09:57:37;;;;;;;5.63;2.13;;;;;;;;;;5015516;28;20131;-55
2023/05/26 10:00:09;;;;;;;4.43;1.75;;;;;;;;;;5002327;28;20125;-55
2023/05/26 10:02:35;;;;;;;;;;;;;;;;;;5003203;28;20054;-55
2023/05/26 10:05:01;;;;;;;7.60;1.60;;;;;;;;;;5001173;28;19987;-55
2023/05/26 10:07:28;;;;;;;10.93;3.15;;;;;;;;;;5000275;28;20096;-54
2023/05/26 10:09:59;;;;;;;6.03;2.90;;;;;;;;;;4999625;28;20042;-55
2023/05/26 10:12:34;;;;;;;7.30;2.83;;;;;;;;;;4996652;28;20489;-55
2023/05/26 10:15:02;;;;;;;4.28;2.03;;;;;;;;;;5000549;28;20540;-54
2023/05/26 10:17:28;;;;;;;7.45;2.83;;;;;;;;;;5000361;28;20500;-55
2023/05/26 10:19:55;;;;;;;6.30;2.10;;;;;;;;;;4999983;28;20108;-55
2023/05/26 10:22:30;;;;;;;9.55;2.42;;;;;;;;;;4997542;28;20034;-55
2023/05/26 10:24:59;;;;;;;7.95;2.65;;;;;;;;;;5003383;28;20045;-55
2023/05/26 10:27:39;;;;;;;6.15;2.83;;;;;;;;;;5005494;28;20042;-54
2023/05/26 10:30:10;;;;;;;5.85;2.22;;;;;;;;;;5002439;28;20050;-55
2023/05/26 10:32:46;;;;;;;5.03;2.03;;;;;;;;;;5005389;28;20238;-55
2023/05/26 10:35:32;;;;;;;5.38;1.83;;;;;;;;;;5007121;28;20049;-55
2023/05/26 10:38:05;;;;;;;11.00;2.70;;;;;;;;;;4995860;28;20132;-55
2023/05/26 10:40:37;;;;;;;5.85;2.40;;;;;;;;;;5017332;28;20050;-55
2023/05/26 10:43:14;;;;;;;4.35;1.92;;;;;;;;;;5002906;28;20060;-55
2023/05/26 10:46:03;;;;;;;8.02;2.40;;;;;;;;;;5003341;28;20045;-55
2023/05/26 10:48:39;;;;;;;5.97;2.20;;;;;;;;;;5001875;28;20050;-55
2023/05/26 10:51:25;;;;;;;6.00;2.00;;;;;;;;;;4999990;28;20060;-55
2023/05/26 10:53:53;;;;;;;7.13;2.53;;;;;;;;;;5006913;28;20489;-56
2023/05/26 10:56:25;;;;;;;7.22;2.28;;;;;;;;;;5022964;28;20143;-55
2023/05/26 10:58:52;;;;;;;3.92;1.67;;;;;;;;;;5018273;28;20052;-55
2023/05/26 11:01:27;;;;;;;5.82;2.65;;;;;;;;;;5016643;28;20041;-55
2023/05/26 11:03:57;;;;;;;4.10;1.98;;;;;;;;;;5018617;28;20545;-55
2023/05/26 11:06:42;;;;;;;5.20;2.35;;;;;;;;;;5020473;28;20037;-55
2023/05/26 11:09:08;;;;;;;5.28;1.50;;;;;;;;;;4983766;28;20863;-56
2023/05/26 11:11:38;;;;;;;4.32;1.95;;;;;;;;;;5009290;28;20030;-55
2023/05/26 11:14:06;;;;;;;4.68;1.98;;;;;;;;;;5015996;28;20351;-55
2023/05/26 11:16:35;;;;;;;4.70;1.83;;;;;;;;;;5015505;28;20059;-55
2023/05/26 11:19:06;;;;;;;6.20;2.40;;;;;;;;;;5006493;28;20299;-56
2023/05/26 11:21:36;;;;;;;7.03;2.03;;;;;;;;;;4995941;28;20046;-55
2023/05/26 11:24:03;;;;;;;9.93;3.08;;;;;;;;;;5022220;28;20540;-55
2023/05/26 11:26:32;;;;;;;9.43;2.78;;;;;;;;;;5004201;28;20048;-55
2023/05/26 11:29:02;;;;;;;5.63;1.80;;;;;;;;;;5016128;28;20038;-55
2023/05/26 11:31:29;;;;;;;8.45;2.70;;;;;;;;;;5017593;28;20037;-52
2023/05/26 11:33:55;;;;;;;8.63;2.45;;;;;;;;;;4998375;28;20041;-54
2023/05/26 11:36:23;;;;;;;7.43;2.30;;;;;;;;;;4997645;28;20040;-55
2023/05/26 11:38:56;;;;;;;7.35;2.58;;;;;;;;;;4999398;28;20049;-54
2023/05/26 11:41:26;;;;;;;5.63;2.10;;;;;;;;;;4998363;28;20034;-54
2023/05/26 11:43:59;;;;;;;6.20;2.85;;;;;;;;;;5009421;28;20045;-54
2023/05/26 11:46:30;;;;;;;12.55;3.45;;;;;;;;;;5018561;28;20128;-55
2023/05/26 11:48:56;;;;;;;5.70;2.83;;;;;;;;;;5007443;28;20195;-53
2023/05/26 11:51:22;;;;;;;6.15;2.60;;;;;;;;;;5013652;28;20045;-53
2023/05/26 11:53:55;;;;;;;6.35;2.00;;;;;;;;;;5023314;28;20037;-54
2023/05/26 11:56:22;;;;;;;6.05;2.35;;;;;;;;;;5012475;28;20070;-55
2023/05/26 11:58:49;;;;;;;6.07;1.92;;;;;;;;;;5013902;28;20558;-53
2023/05/26 12:01:15;;;;;;;6.72;2.67;;;;;;;;;;5005161;28;20042;-54
2023/05/26 12:03:44;;;;;;;9.45;2.92;;;;;;;;;;5017530;28;20405;-54
2023/05/26 12:06:11;;;;;;;6.82;2.70;;;;;;;;;;5015437;28;20042;-54
2023/05/26 12:08:43;;;;;;;5.03;2.35;;;;;;;;;;5020996;28;20037;-55
2023/05/26 12:11:13;;;;;;;5.80;2.03;;;;;;;;;;5018456;28;20048;-53
2023/05/26 12:13:39;;;;;;;5.30;2.25;;;;;;;;;;5012376;28;20061;-55
2023/05/26 12:16:05;;;;;;;7.28;2.75;;;;;;;;;;5015292;28;20437;-55
2023/05/26 12:18:31;;;;;;;9.60;3.17;;;;;;;;;;5018829;28;20034;-54
2023/05/26 12:20:57;;;;;;;9.55;2.70;;;;;;;;;;5016150;28;20399;-54
2023/05/26 12:23:24;;;;;;;8.60;3.05;;;;;;;;;;5019521;28;20045;-54
2023/05/26 12:25:50;;;;;;;5.80;2.60;;;;;;;;;;5015295;28;20464;-55
2023/05/26 12:28:16;;;;;;;5.03;1.90;;;;;;;;;;5016855;28;20073;-55
2023/05/26 12:30:42;;;;;;;4.55;1.90;;;;;;;;;;5010089;28;20038;-55
2023/05/26 12:33:08;;;;;;;6.97;2.92;;;;;;;;;;5010507;28;20095;-55
2023/05/26 12:35:35;;;;;;;6.78;2.38;;;;;;;;;;5020025;28;20133;-55
2023/05/26 12:38:01;;;;;;;6.28;2.90;;;;;;;;;;5001870;28;20936;-55
2023/05/26 12:40:27;;;;;;;6.20;2.33;;;;;;;;;;4995105;28;20048;-54
2023/05/26 12:42:52;;;;;;;4.93;1.92;;;;;;;;;;4996960;28;20050;-55
2023/05/26 12:45:19;;;;;;;4.55;1.83;;;;;;;;;;4996932;28;20077;-55
2023/05/26 12:47:45;;;;;;;4.43;2.17;;;;;;;;;;4990525;28;20074;-54
2023/05/26 12:50:11;;;;;;;5.03;2.35;;;;;;;;;;4972772;28;20077;-55
2023/05/26 12:52:37;;;;;;;7.28;2.58;;;;;;;;;;4995308;28;20088;-55
2023/05/26 12:55:03;;;;;;;5.68;2.85;;;;;;;;;;4993119;28;20042;-54
2023/05/26 12:57:29;;;;;;;3.47;2.10;;;;;;;;;;4990380;28;20039;-54
2023/05/26 12:59:55;;;;;;;4.45;2.25;;;;;;;;;;4994272;28;20497;-54
2023/05/26 13:02:22;;;;;;;5.13;2.22;;;;;;;;;;5000384;28;20050;-55
2023/05/26 13:04:48;;;;;;;9.32;3.25;;;;;;;;;;5004074;28;20407;-55
2023/05/26 13:07:14;;;;;;;7.40;3.03;;;;;;;;;;5005808;28;20407;-55
2023/05/26 13:09:40;;;;;;;8.57;3.63;;;;;;;;;;5010704;28;20117;-54
2023/05/26 13:12:06;;;;;;;9.35;2.75;;;;;;;;;;5009006;28;20824;-55
2023/05/26 13:14:32;;;;;;;7.70;2.88;;;;;;;;;;5004971;28;20041;-55
2023/05/26 13:16:58;;;;;;;8.18;2.95;;;;;;;;;;4993204;28;20033;-55
2023/05/26 13:19:24;;;;;;;4.40;2.47;;;;;;;;;;5003352;28;20060;-55
2023/05/26 13:21:51;;;;;;;6.30;2.38;;;;;;;;;;5006458;28;20088;-55
2023/05/26 13:24:17;;;;;;;7.85;2.88;;;;;;;;;;4986876;28;20045;-55
2023/05/26 13:26:43;;;;;;;9.52;2.90;;;;;;;;;;5019038;28;20132;-54
2023/05/26 13:29:10;;;;;;;5.60;2.53;;;;;;;;;;5011047;28;20107;-54
2023/05/26 13:31:36;;;;;;;4.63;1.83;;;;;;;;;;5007919;28;20495;-53
2023/05/26 13:34:02;;;;;;;4.88;2.05;;;;;;;;;;5007467;28;20046;-55
2023/05/26 13:36:28;;;;;;;4.95;1.77;;;;;;;;;;5006954;28;20044;-63
2023/05/26 13:38:54;;;;;;;5.65;2.03;;;;;;;;;;5007574;28;20418;-62
2023/05/26 13:41:20;;;;;;;4.70;2.65;;;;;;;;;;5008144;28;20449;-56
2023/05/26 13:43:47;;;;;;;5.85;2.55;;;;;;;;;;5007058;28;20532;-59
2023/05/26 13:46:13;;;;;;;9.43;3.15;;;;;;;;;;5004158;28;20490;-55
2023/05/26 13:48:39;;;;;;;7.35;2.80;;;;;;;;;;5009658;28;20038;-55
2023/05/26 13:51:05;;;;;;;3.72;2.20;;;;;;;;;;5024418;28;20284;-61
2023/05/26 13:53:33;;;;;;;4.68;2.17;;;;;;;;;;5005100;28;20502;-55
2023/05/26 13:55:59;;;;;;;6.32;2.30;;;;;;;;;;4997571;28;20100;-55
2023/05/26 13:58:25;;;;;;;6.72;2.33;;;;;;;;;;5008694;28;20038;-54
2023/05/26 14:00:51;;;;;;;5.07;2.15;;;;;;;;;;5012798;28;20037;-55
2023/05/26 14:03:17;;;;;;;5.15;2.50;;;;;;;;;;5006629;28;20116;-55
2023/05/26 14:05:44;;;;;;;4.60;2.15;;;;;;;;;;4998006;28;20473;-54
2023/05/26 14:08:10;;;;;;;7.03;1.92;;;;;;;;;;4998531;28;20045;-55
2023/05/26 14:10:37;;;;;;;3.55;2.00;;;;;;;;;;4992031;28;20522;-55
2023/05/26 14:13:03;;;;;;;7.10;2.78;;;;;;;;;;5010860;28;20052;-55
2023/05/26 14:15:29;;;;;;;4.15;2.20;;;;;;;;;;4994593;28;20494;-54
2023/05/26 14:17:55;;;;;;;5.07;2.13;;;;;;;;;;5002911;28;20409;-55
2023/05/26 14:20:21;;;;;;;10.18;2.80;;;;;;;;;;4991964;28;20133;-55
2023/05/26 14:22:48;;;;;;;3.15;1.98;;;;;;;;;;4998680;28;20475;-54
2023/05/26 14:25:15;;;;;;;3.53;1.50;;;;;;;;;;5006851;28;20129;-55
2023/05/26 14:27:41;;;;;;;6.18;2.20;;;;;;;;;;5005154;28;20526;-55
2023/05/26 14:30:09;;;;;;;2.10;1.50;;;;;;;;;;5005656;28;20049;-55
2023/05/26 14:32:35;;;;;;;3.38;1.77;;;;;;;;;;4997476;28;20579;-55
2023/05/26 14:35:01;;;;;;;5.65;1.85;;;;;;;;;;5004095;28;20482;-55
2023/05/26 14:37:27;;;;;;;2.60;1.40;;;;;;;;;;5004888;28;20073;-56
2023/05/26 14:39:54;;;;;;;3.88;1.45;;;;;;;;;;5004683;28;20038;-55
2023/05/26 14:42:20;;;;;;;4.45;1.90;;;;;;;;;;4995271;28;20117;-55